Historique des mesures à Cassis (13260), France
Quotidien Résumé Avril 15, 2020 Unités:  US    Métrique   Métrique/US
Quotidien Hebdomadaire Mensuel Annuel
  Maximum: Minimum: Moyenne:
Température: 85.1 °F 71.4 °F 77.9 °F
Point de rosée: 65.8 °F 57 °F 62.1 °F
Humidité: 70% 50% 59%
Vitesse du vent: 5.8mph 0mph 1.2mph
Rafales: 10.5mph - -
Vent- - SW
Pression: 30.1 in 30 in -
Précipitations: 0 in    
Historical Graphs
 
 
Mesures pour : Avril 15, 2020
Heure Temperature Point de rosée Pression Vent Vitesse du vent Rafales Humidité Pluie (par heure)
00:12 74.5 °F 59.7 °F 30.1 in NW 0.9 mph 1.6 mph 60% 0 in
01:11 73.2 °F 59 °F 30.1 in Calm   2 mph 61% 0 in
02:12 73.4 °F 57.6 °F 30.1 in Calm   0.9 mph 58% 0 in
03:12 73.8 °F 57 °F 30.1 in Calm   1.4 mph 56% 0 in
04:12 73 °F 57.7 °F 30.1 in Calm   2 mph 59% 0 in
05:12 72.3 °F 58.1 °F 30.1 in NNW 0.7 mph 1.1 mph 61% 0 in
06:12 72 °F 58.6 °F 30.1 in Calm     63% 0 in
07:12 71.4 °F 58.6 °F 30.1 in Calm   2.2 mph 64% 0 in
08:12 71.8 °F 59.4 °F 30.1 in Calm   2.9 mph 65% 0 in
09:12 75.9 °F 61.5 °F 30.1 in Calm     61% 0 in
10:12 78.4 °F 61.9 °F 30.1 in NNW 5.3 mph 5.3 mph 57% 0 in
11:12 82 °F 63.7 °F 30.1 in Calm   2.9 mph 54% 0 in
12:12 84.6 °F 64 °F 30.1 in SSW 5.8 mph 8.9 mph 50% 0 in
13:12 85.1 °F 65.5 °F 30.1 in ESE 4.5 mph 7 mph 52% 0 in
14:12 84.7 °F 65.3 °F 30.1 in WSW 5.3 mph 10.5 mph 52% 0 in
15:11 84.9 °F 65.8 °F 30 in SSW 2.2 mph 9.8 mph 53% 0 in
16:12 84.4 °F 64.9 °F 30 in SW 3.1 mph 6.5 mph 52% 0 in
17:12 84.2 °F 65.3 °F 30 in Calm   5.3 mph 53% 0 in
18:12 83.3 °F 64.9 °F 30 in SE 1.6 mph 2.9 mph 54% 0 in
19:12 81.7 °F 64.9 °F 30 in Calm   1.4 mph 57% 0 in
20:11 78.6 °F 64.6 °F 30 in Calm     62% 0 in
21:12 75.7 °F 64 °F 30 in Calm   2.5 mph 67% 0 in
22:12 74.8 °F 62.1 °F 30 in Calm   1.8 mph 65% 0 in
23:12 73.6 °F 63.3 °F 30 in Calm     70% 0 in
Observations météo à CASSIS
WU-History script by Weather Underground - 2 mb